Time;durP1;ratioP1;P1;durP2;ratioP2;P2;SDS_P1;SDS_P2;PMS_P1;PMS_P2;Temp;Humidity;BMP_temperature;BMP_pressure;BME280_temperature;BME280_humidity;BME280_pressure;Samples;Min_cycle;Max_cycle;Signal;HPM_P1;HPM_P2
2022/10/11 00:00:11;;;;;;;6.00;3.23;;;13.00;99.90;;;;;;1038625;28;20029;-79
2022/10/11 00:00:41;;;;;;;4.57;2.80;;;13.00;99.90;;;;;;1038305;28;20020;-79
2022/10/11 00:01:12;;;;;;;5.63;2.87;;;13.00;99.90;;;;;;1038451;28;20268;-79
2022/10/11 00:01:43;;;;;;;4.47;2.93;;;13.00;99.90;;;;;;1042924;28;20496;-79
2022/10/11 00:02:13;;;;;;;5.37;3.00;;;13.00;99.90;;;;;;1041255;28;20100;-79
2022/10/11 00:02:44;;;;;;;4.33;2.83;;;13.00;99.90;;;;;;1046510;28;20127;-82
2022/10/11 00:03:15;;;;;;;5.03;2.73;;;13.00;99.90;;;;;;1038655;28;20033;-82
2022/10/11 00:03:45;;;;;;;4.23;2.37;;;13.00;99.90;;;;;;1034248;28;20018;-80
2022/10/11 00:04:16;;;;;;;4.87;2.87;;;13.00;99.90;;;;;;1040129;28;20268;-80
2022/10/11 00:04:49;;;;;;;4.23;2.80;;;13.00;99.90;;;;;;1043016;28;20760;-79
2022/10/11 00:05:19;;;;;;;4.70;2.83;;;13.00;99.90;;;;;;1045171;28;20060;-82
2022/10/11 00:05:52;;;;;;;6.37;2.80;;;13.00;99.90;;;;;;1046366;28;20082;-81
2022/10/11 00:06:23;;;;;;;3.80;2.60;;;13.00;99.90;;;;;;1038360;28;20061;-81
2022/10/11 00:06:53;;;;;;;5.87;3.03;;;12.90;99.90;;;;;;1043140;28;20017;-81
2022/10/11 00:07:24;;;;;;;5.33;3.00;;;12.90;99.90;;;;;;1043008;28;20021;-82
2022/10/11 00:07:55;;;;;;;5.60;2.60;;;12.90;99.90;;;;;;1042781;28;20028;-82
2022/10/11 00:08:26;;;;;;;6.05;2.78;;;12.90;99.90;;;;;;1046664;28;20387;-80
2022/10/11 00:08:57;;;;;;;6.37;2.57;;;12.90;99.90;;;;;;1042596;28;20476;-82
2022/10/11 00:09:27;;;;;;;4.13;2.97;;;12.90;99.90;;;;;;1047196;28;20020;-81
2022/10/11 00:09:58;;;;;;;4.60;2.67;;;12.90;99.90;;;;;;1050892;28;20093;-80
2022/10/11 00:10:28;;;;;;;4.07;2.47;;;12.90;99.90;;;;;;1046353;28;20055;-80
2022/10/11 00:11:05;;;;;;;3.83;2.17;;;12.90;99.90;;;;;;1046721;28;20021;-81
2022/10/11 00:11:35;;;;;;;4.30;2.88;;;12.90;99.90;;;;;;1046721;28;20009;-79
2022/10/11 00:12:06;;;;;;;5.35;2.97;;;12.90;99.90;;;;;;1047644;28;20063;-80
2022/10/11 00:12:37;;;;;;;4.80;2.87;;;12.80;99.90;;;;;;1043339;28;20824;-79
2022/10/11 00:13:07;;;;;;;4.13;2.37;;;12.80;99.90;;;;;;1046669;28;20035;-81
2022/10/11 00:13:38;;;;;;;3.97;2.30;;;12.80;99.90;;;;;;1046952;28;20027;-80
2022/10/11 00:14:09;;;;;;;3.43;2.40;;;12.80;99.90;;;;;;1042481;28;20289;-79
2022/10/11 00:14:39;;;;;;;7.57;3.30;;;12.80;99.90;;;;;;1047101;28;20468;-79
2022/10/11 00:15:15;;;;;;;5.30;2.40;;;12.80;99.90;;;;;;1042995;28;20587;-81
2022/10/11 00:15:46;;;;;;;5.38;2.58;;;12.80;99.90;;;;;;1036136;28;20067;-81
2022/10/11 00:16:16;;;;;;;5.20;2.50;;;12.80;99.90;;;;;;1035455;28;20048;-82
2022/10/11 00:16:47;;;;;;;4.37;2.80;;;12.80;99.90;;;;;;1035059;28;20037;-82
2022/10/11 00:17:18;;;;;;;4.57;2.60;;;12.80;99.90;;;;;;1039600;28;20099;-80
2022/10/11 00:17:48;;;;;;;3.40;1.90;;;12.80;99.90;;;;;;1038684;28;20688;-82
2022/10/11 00:18:19;;;;;;;4.73;2.63;;;12.80;99.90;;;;;;1038411;28;20562;-82
2022/10/11 00:18:50;;;;;;;4.60;2.42;;;12.80;99.90;;;;;;1038680;28;20117;-79
2022/10/11 00:19:21;;;;;;;5.23;2.70;;;12.70;99.90;;;;;;1042272;28;20032;-80
2022/10/11 00:19:52;;;;;;;7.57;2.53;;;12.70;99.90;;;;;;1043002;28;20032;-80
2022/10/11 00:20:23;;;;;;;6.20;2.90;;;12.70;99.90;;;;;;1046937;28;20025;-80
2022/10/11 00:21:01;;;;;;;3.08;1.92;;;12.70;99.90;;;;;;1042291;28;20137;-79
2022/10/11 00:21:32;;;;;;;5.43;2.67;;;12.70;99.90;;;;;;1039742;28;20132;-80
2022/10/11 00:22:02;;;;;;;4.77;2.07;;;12.70;99.90;;;;;;1042489;28;20101;-82
2022/10/11 00:22:37;;;;;;;5.70;2.53;;;12.70;99.90;;;;;;1033724;28;20137;-79
2022/10/11 00:23:07;;;;;;;5.20;2.17;;;12.70;99.90;;;;;;1030772;28;20571;-80
2022/10/11 00:23:39;;;;;;;4.13;2.20;;;12.70;99.90;;;;;;1030827;28;20510;-81
2022/10/11 00:24:10;;;;;;;4.18;2.63;;;12.70;99.90;;;;;;1035615;28;20054;-80
2022/10/11 00:24:41;;;;;;;3.85;2.80;;;12.70;99.90;;;;;;1042542;28;20099;-80
2022/10/11 00:25:12;;;;;;;4.63;2.53;;;12.70;99.90;;;;;;1047402;28;20111;-82
2022/10/11 00:25:43;;;;;;;3.92;2.20;;;12.70;99.90;;;;;;1050667;28;20035;-79
2022/10/11 00:26:13;;;;;;;3.80;2.33;;;12.70;99.90;;;;;;1046769;28;20119;-81
2022/10/11 00:26:44;;;;;;;3.60;2.30;;;12.70;99.90;;;;;;1047130;28;20028;-80
2022/10/11 00:27:15;;;;;;;3.37;2.30;;;12.70;99.90;;;;;;1046546;28;20024;-80
2022/10/11 00:27:45;;;;;;;6.37;2.50;;;12.70;99.90;;;;;;1042764;28;20116;-82
2022/10/11 00:28:16;;;;;;;5.60;2.63;;;12.70;99.90;;;;;;1038258;28;20524;-80
2022/10/11 00:28:46;;;;;;;5.53;2.97;;;12.70;99.90;;;;;;1034585;28;20026;-81
2022/10/11 00:29:17;;;;;;;4.90;2.70;;;12.70;99.90;;;;;;1038444;28;20373;-81
2022/10/11 00:29:47;;;;;;;2.90;2.20;;;12.70;99.90;;;;;;1038374;28;20570;-79
2022/10/11 00:30:18;;;;;;;4.17;2.60;;;12.70;99.90;;;;;;1043119;28;20021;-82
2022/10/11 00:30:49;;;;;;;4.73;2.50;;;12.70;99.90;;;;;;1042957;28;20021;-79
2022/10/11 00:31:19;;;;;;;4.20;2.63;;;12.60;99.90;;;;;;1042669;28;20017;-79
2022/10/11 00:31:50;;;;;;;5.23;2.60;;;12.60;99.90;;;;;;1051231;28;20020;-81
2022/10/11 00:32:21;;;;;;;4.23;2.50;;;12.70;99.90;;;;;;1046737;28;20633;-81
2022/10/11 00:32:51;;;;;;;3.23;2.13;;;12.60;99.90;;;;;;1046861;28;20047;-81
2022/10/11 00:33:22;;;;;;;4.03;2.90;;;12.70;99.90;;;;;;1046940;28;20581;-82
2022/10/11 00:33:54;;;;;;;5.37;2.33;;;12.70;99.90;;;;;;1043134;28;20021;-80
2022/10/11 00:34:24;;;;;;;2.63;1.92;;;12.70;99.90;;;;;;1046618;28;20030;-81
2022/10/11 00:34:57;;;;;;;7.90;3.07;;;12.70;99.90;;;;;;1047078;28;20017;-81
2022/10/11 00:35:28;;;;;;;3.88;2.10;;;12.70;99.90;;;;;;1047434;28;20016;-78
2022/10/11 00:35:59;;;;;;;5.23;2.60;;;12.70;99.90;;;;;;1047264;28;20020;-80
2022/10/11 00:36:30;;;;;;;4.72;2.33;;;12.70;99.90;;;;;;1046975;28;20031;-79
2022/10/11 00:37:01;;;;;;;3.00;1.60;;;12.70;99.90;;;;;;1042886;28;20360;-80
2022/10/11 00:37:33;;;;;;;4.03;2.17;;;12.70;99.90;;;;;;1038576;28;20412;-79
2022/10/11 00:38:04;;;;;;;4.13;2.25;;;12.70;99.90;;;;;;1039094;28;20528;-82
2022/10/11 00:38:34;;;;;;;5.63;2.17;;;12.70;99.90;;;;;;1042875;28;20499;-79
2022/10/11 00:39:05;;;;;;;4.47;2.10;;;12.70;99.90;;;;;;1042580;28;20535;-81
2022/10/11 00:39:35;;;;;;;4.47;2.23;;;12.70;99.90;;;;;;1038703;28;20022;-80
2022/10/11 00:40:11;;;;;;;6.23;2.40;;;12.70;99.90;;;;;;1036943;28;20467;-80
2022/10/11 00:40:43;;;;;;;4.22;2.20;;;12.70;99.90;;;;;;1038645;28;20033;-79
2022/10/11 00:41:15;;;;;;;3.75;1.90;;;12.70;99.90;;;;;;1036358;28;20034;-80
2022/10/11 00:41:46;;;;;;;3.17;2.10;;;12.70;99.90;;;;;;1038959;28;20025;-80
2022/10/11 00:42:17;;;;;;;3.25;1.92;;;12.70;99.90;;;;;;1042727;28;20059;-80
2022/10/11 00:42:48;;;;;;;4.37;1.90;;;12.60;99.90;;;;;;1043217;28;20021;-81
2022/10/11 00:43:23;;;;;;;5.00;1.80;;;12.70;99.90;;;;;;1048370;28;20845;-80
2022/10/11 00:44:29;;;;;;;4.18;2.63;;;12.60;99.90;;;;;;1050511;28;20150;-80
2022/10/11 00:45:30;;;;;;;5.65;2.10;;;12.60;99.90;;;;;;1046889;28;20498;-81
2022/10/11 00:46:16;;;;;;;4.90;2.50;;;12.60;99.90;;;;;;1044166;28;20033;-79
2022/10/11 00:47:17;;;;;;;3.22;1.90;;;12.60;99.90;;;;;;1038609;28;20060;-79
2022/10/11 00:47:48;;;;;;;3.75;2.25;;;12.60;99.90;;;;;;1036700;28;20083;-80
2022/10/11 00:48:27;;;;;;;4.43;2.37;;;12.60;99.90;;;;;;1046960;28;20020;-79
2022/10/11 00:49:18;;;;;;;3.92;2.60;;;12.60;99.90;;;;;;1043462;28;20036;-80
2022/10/11 00:49:58;;;;;;;5.97;2.65;;;12.60;99.90;;;;;;1039347;28;20017;-79
2022/10/11 00:50:31;;;;;;;3.55;2.10;;;12.60;99.90;;;;;;1039019;28;20010;-80
2022/10/11 00:51:07;;;;;;;3.90;2.28;;;12.60;99.90;;;;;;1039253;28;20115;-80
2022/10/11 00:51:44;;;;;;;7.85;2.25;;;12.60;99.90;;;;;;1042103;28;20026;-80
2022/10/11 00:52:30;;;;;;;4.00;1.90;;;12.60;99.90;;;;;;1043479;28;20016;-79
2022/10/11 00:53:08;;;;;;;3.78;1.90;;;12.50;99.90;;;;;;1047234;28;20048;-78
2022/10/11 00:53:40;;;;;;;3.80;2.00;;;12.50;99.90;;;;;;1051722;28;20520;-81
2022/10/11 00:54:16;;;;;;;4.90;2.20;;;12.50;99.90;;;;;;1045655;28;20090;-77
2022/10/11 00:54:47;;;;;;;3.67;2.22;;;12.50;99.90;;;;;;1043509;28;20051;-80
2022/10/11 00:55:20;;;;;;;3.45;2.00;;;12.50;99.90;;;;;;1045074;28;20014;-80
2022/10/11 00:55:59;;;;;;;2.97;1.90;;;12.50;99.90;;;;;;1047510;28;20012;-79
2022/10/11 00:56:37;;;;;;;6.10;2.22;;;12.50;99.90;;;;;;1049216;28;20537;-80
2022/10/11 00:57:14;;;;;;;3.47;1.92;;;12.50;99.90;;;;;;1044974;28;20514;-81
2022/10/11 00:57:48;;;;;;;3.28;2.00;;;12.50;99.90;;;;;;1043125;28;20009;-80
2022/10/11 00:58:20;;;;;;;4.15;2.50;;;12.50;99.90;;;;;;1039309;28;20013;-81
2022/10/11 00:58:51;;;;;;;3.00;2.05;;;12.50;99.90;;;;;;1039199;28;20052;-81
2022/10/11 00:59:29;;;;;;;5.70;2.28;;;12.50;99.90;;;;;;1040293;28;20176;-80
2022/10/11 01:00:00;;;;;;;4.07;2.58;;;12.50;99.90;;;;;;1043409;28;20020;-78
2022/10/11 01:00:30;;;;;;;2.90;1.85;;;12.50;99.90;;;;;;1043510;28;20509;-81
2022/10/11 01:01:02;;;;;;;4.67;2.43;;;12.50;99.90;;;;;;1040412;28;20721;-80
2022/10/11 01:01:33;;;;;;;3.75;2.10;;;12.50;99.90;;;;;;1045776;28;20709;-80
2022/10/11 01:02:05;;;;;;;3.03;1.63;;;12.50;99.90;;;;;;1043258;28;20074;-80
2022/10/11 01:02:37;;;;;;;2.97;1.98;;;12.50;99.90;;;;;;1043390;28;20561;-80
2022/10/11 01:03:07;;;;;;;2.65;1.77;;;12.40;99.90;;;;;;1039486;28;20099;-79
2022/10/11 01:03:39;;;;;;;3.50;2.00;;;12.40;99.90;;;;;;1039287;28;20083;-81
2022/10/11 01:04:09;;;;;;;4.50;2.17;;;12.40;99.90;;;;;;1039189;28;20503;-80
2022/10/11 01:04:41;;;;;;;5.50;2.23;;;12.40;99.90;;;;;;1039515;28;20507;-78
2022/10/11 01:05:14;;;;;;;2.55;1.70;;;12.40;99.90;;;;;;1039623;28;20016;-81
2022/10/11 01:05:45;;;;;;;3.08;1.88;;;12.40;99.90;;;;;;1047598;28;20200;-80
2022/10/11 01:06:15;;;;;;;2.43;1.63;;;12.40;99.90;;;;;;1051071;28;20146;-80
2022/10/11 01:06:47;;;;;;;4.47;2.37;;;12.40;99.90;;;;;;1047560;28;20579;-80
2022/10/11 01:07:20;;;;;;;3.72;1.80;;;12.40;99.90;;;;;;1047603;28;20309;-79
2022/10/11 01:07:50;;;;;;;4.22;1.85;;;12.40;99.90;;;;;;1047463;28;20017;-80
2022/10/11 01:08:22;;;;;;;4.03;2.10;;;12.40;99.90;;;;;;1043407;28;20017;-80
2022/10/11 01:08:52;;;;;;;4.35;2.55;;;12.40;99.90;;;;;;1043097;28;20126;-80
2022/10/11 01:09:25;;;;;;;3.13;2.00;;;12.40;99.90;;;;;;1043535;28;20020;-80
2022/10/11 01:09:58;;;;;;;3.65;1.98;;;12.40;99.90;;;;;;1048372;28;20017;-79
2022/10/11 01:10:29;;;;;;;3.40;1.98;;;12.40;99.90;;;;;;1046389;28;20055;-80
2022/10/11 01:11:00;;;;;;;2.35;1.77;;;12.40;99.90;;;;;;1044198;28;20029;-80
2022/10/11 01:11:32;;;;;;;2.65;1.75;;;12.40;99.90;;;;;;1047624;28;20107;-81
2022/10/11 01:12:11;;;;;;;3.63;1.90;;;12.40;99.90;;;;;;1047967;28;20032;-81
2022/10/11 01:13:02;;;;;;;4.25;1.85;;;12.40;99.90;;;;;;1047868;28;20078;-79
2022/10/11 01:13:47;;;;;;;2.53;1.67;;;12.30;99.90;;;;;;1043298;28;20064;-81
2022/10/11 01:14:42;;;;;;;3.92;1.80;;;12.30;99.90;;;;;;1043847;28;20032;-78
2022/10/11 01:15:39;;;;;;;3.08;2.00;;;12.30;99.90;;;;;;1044605;28;20094;-80
2022/10/11 01:16:21;;;;;;;3.70;1.77;;;12.30;99.90;;;;;;1047388;28;20040;-80
2022/10/11 01:17:02;;;;;;;2.25;1.80;;;12.30;99.90;;;;;;1044374;28;20033;-79
2022/10/11 01:17:56;;;;;;;3.60;1.83;;;12.30;99.90;;;;;;1043712;28;20021;-81
2022/10/11 01:18:38;;;;;;;3.25;1.95;;;12.30;99.90;;;;;;1043346;28;20032;-79
2022/10/11 01:19:31;;;;;;;3.38;2.20;;;12.40;99.90;;;;;;1044958;28;20098;-79
2022/10/11 01:20:32;;;;;;;3.47;1.83;;;12.40;99.90;;;;;;1047479;28;20028;-80
2022/10/11 01:21:16;;;;;;;3.80;1.98;;;12.40;99.90;;;;;;1043077;28;20411;-81
2022/10/11 01:22:27;;;;;;;4.65;2.33;;;12.40;99.90;;;;;;1045174;28;20044;-80
2022/10/11 01:23:51;;;;;;;5.85;1.80;;;12.40;99.90;;;;;;1045948;28;20487;-80
2022/10/11 01:24:59;;;;;;;2.58;1.77;;;12.40;99.90;;;;;;1038997;28;20030;-78
2022/10/11 01:25:57;;;;;;;2.00;1.48;;;12.40;99.90;;;;;;1039054;28;20021;-79
2022/10/11 01:26:45;;;;;;;2.72;1.80;;;12.40;99.90;;;;;;1034951;28;20042;-80
2022/10/11 01:27:39;;;;;;;2.00;1.58;;;12.40;99.90;;;;;;1047334;28;20021;-80
2022/10/11 01:28:37;;;;;;;2.30;1.73;;;12.40;99.90;;;;;;1044973;28;20029;-79
2022/10/11 01:29:32;;;;;;;3.45;1.65;;;12.40;99.90;;;;;;1043148;28;20057;-79
2022/10/11 01:30:17;;;;;;;4.05;1.90;;;12.40;99.90;;;;;;1043500;28;20130;-80
2022/10/11 01:30:50;;;;;;;3.10;1.90;;;12.30;99.90;;;;;;1043335;28;20144;-79
2022/10/11 01:31:48;;;;;;;3.75;2.30;;;12.30;99.90;;;;;;1042566;28;20021;-80
2022/10/11 01:32:32;;;;;;;4.25;2.10;;;12.30;99.90;;;;;;1043032;28;20021;-80
2022/10/11 01:33:21;;;;;;;2.78;1.67;;;12.30;99.90;;;;;;1041286;28;20014;-80
2022/10/11 01:34:05;;;;;;;3.25;2.00;;;12.30;99.90;;;;;;1043216;28;20107;-80
2022/10/11 01:34:46;;;;;;;2.45;1.77;;;12.30;99.90;;;;;;1045798;28;20017;-80
2022/10/11 01:35:40;;;;;;;2.75;1.90;;;12.30;99.90;;;;;;1043348;28;20025;-81
2022/10/11 01:36:37;;;;;;;5.13;2.40;;;12.30;99.90;;;;;;1043703;28;20531;-80
2022/10/11 01:37:24;;;;;;;3.60;1.92;;;12.20;99.90;;;;;;1050201;28;20024;-80
2022/10/11 01:38:03;;;;;;;2.60;1.88;;;12.30;99.90;;;;;;1045790;28;20082;-80
2022/10/11 01:38:40;;;;;;;3.33;1.88;;;12.20;99.90;;;;;;1043803;28;20100;-80
2022/10/11 01:39:14;;;;;;;3.67;1.85;;;12.20;99.90;;;;;;1043433;28;20021;-81
2022/10/11 01:39:50;;;;;;;2.88;1.77;;;12.20;99.90;;;;;;1042928;28;20045;-79
2022/10/11 01:40:27;;;;;;;2.70;1.63;;;12.20;99.90;;;;;;1039403;28;20029;-80
2022/10/11 01:41:05;;;;;;;4.60;2.10;;;12.20;99.90;;;;;;1039315;28;20023;-80
2022/10/11 01:41:45;;;;;;;2.45;1.73;;;12.20;99.90;;;;;;1047476;28;20012;-80
2022/10/11 01:42:18;;;;;;;3.88;1.90;;;12.20;99.90;;;;;;1046516;28;20016;-79
2022/10/11 01:42:51;;;;;;;2.78;1.88;;;12.20;99.90;;;;;;1042968;28;20017;-81
2022/10/11 01:43:23;;;;;;;2.58;1.63;;;12.20;99.90;;;;;;1043395;28;20027;-81
2022/10/11 01:43:59;;;;;;;3.92;2.10;;;12.20;99.90;;;;;;1040157;28;20017;-79
2022/10/11 01:44:30;;;;;;;3.40;1.85;;;12.20;99.90;;;;;;1043499;28;20108;-79
2022/10/11 01:45:01;;;;;;;2.10;1.58;;;12.20;99.90;;;;;;1038960;28;20029;-82
2022/10/11 01:45:33;;;;;;;2.87;1.60;;;12.10;99.90;;;;;;1039412;28;20026;-81
2022/10/11 01:46:07;;;;;;;3.25;1.80;;;12.10;99.90;;;;;;1039290;28;20022;-79
2022/10/11 01:46:38;;;;;;;2.92;1.83;;;12.10;99.90;;;;;;1039951;28;20160;-81
2022/10/11 01:47:08;;;;;;;2.73;2.00;;;12.10;99.90;;;;;;1039319;28;20163;-79
2022/10/11 01:47:41;;;;;;;2.73;1.70;;;12.10;99.90;;;;;;1043168;28;20044;-80
2022/10/11 01:48:12;;;;;;;3.63;1.92;;;12.10;99.90;;;;;;1042827;28;20021;-81
2022/10/11 01:48:55;;;;;;;3.33;2.05;;;12.10;99.90;;;;;;1043913;28;20379;-79
2022/10/11 01:49:25;;;;;;;2.80;1.90;;;12.10;99.90;;;;;;1042975;28;20226;-79
2022/10/11 01:49:59;;;;;;;6.47;1.87;;;12.10;99.90;;;;;;1045784;28;20383;-79
2022/10/11 01:50:44;;;;;;;2.88;1.70;;;12.10;99.90;;;;;;1043101;28;20027;-81
2022/10/11 01:51:18;;;;;;;2.28;1.67;;;12.10;99.90;;;;;;1039122;28;20138;-81
2022/10/11 01:51:54;;;;;;;2.63;1.65;;;12.10;99.90;;;;;;1042512;28;20024;-80
2022/10/11 01:52:31;;;;;;;2.78;1.88;;;12.10;99.90;;;;;;1042174;28;20015;-79
2022/10/11 01:53:27;;;;;;;4.22;2.47;;;12.10;99.90;;;;;;1043198;28;20017;-79
2022/10/11 01:54:00;;;;;;;5.28;1.83;;;12.10;99.90;;;;;;1043661;28;20023;-81
2022/10/11 01:54:52;;;;;;;3.17;1.90;;;12.10;99.90;;;;;;1043595;28;20067;-79
2022/10/11 01:55:55;;;;;;;3.38;2.17;;;12.10;99.90;;;;;;1043167;28;20021;-79
2022/10/11 01:56:50;;;;;;;2.78;1.77;;;12.10;99.90;;;;;;1030697;28;20089;-79
2022/10/11 01:57:40;;;;;;;2.95;1.85;;;12.10;99.90;;;;;;1046524;28;20064;-80
2022/10/11 01:58:26;;;;;;;2.20;1.40;;;12.10;99.90;;;;;;1045324;28;20405;-79
2022/10/11 01:59:18;;;;;;;4.75;2.13;;;12.10;99.90;;;;;;1046316;28;20050;-80
2022/10/11 01:59:49;;;;;;;3.30;2.13;;;12.10;99.90;;;;;;1042999;28;20455;-80
2022/10/11 02:00:22;;;;;;;3.40;2.10;;;12.00;99.90;;;;;;1039738;28;20520;-78
2022/10/11 02:01:18;;;;;;;3.75;2.00;;;12.10;99.90;;;;;;1042401;28;20433;-79
2022/10/11 02:02:07;;;;;;;2.47;1.65;;;12.10;99.90;;;;;;1040499;28;20022;-80
2022/10/11 02:02:55;;;;;;;3.83;1.90;;;12.10;99.90;;;;;;1040927;28;20021;-80
2022/10/11 02:03:41;;;;;;;3.05;2.08;;;12.10;99.90;;;;;;1043036;28;20476;-80
2022/10/11 02:04:53;;;;;;;4.70;2.13;;;12.10;99.90;;;;;;1039371;28;20178;-80
2022/10/11 02:05:39;;;;;;;3.17;2.03;;;12.00;99.90;;;;;;1042998;28;20024;-79
2022/10/11 02:06:32;;;;;;;2.95;2.10;;;12.10;99.90;;;;;;1046864;28;20557;-80
2022/10/11 02:07:23;;;;;;;3.72;2.03;;;12.10;99.90;;;;;;1044935;28;20029;-81
2022/10/11 02:08:08;;;;;;;2.45;1.70;;;12.10;99.90;;;;;;1047198;28;20012;-80
2022/10/11 02:08:54;;;;;;;3.15;1.67;;;12.10;99.90;;;;;;1047096;28;20090;-79
2022/10/11 02:09:43;;;;;;;3.95;1.95;;;12.10;99.90;;;;;;1043102;28;20009;-79
2022/10/11 02:10:25;;;;;;;3.33;1.90;;;12.10;99.90;;;;;;1039783;28;20021;-80
2022/10/11 02:11:15;;;;;;;4.35;1.98;;;12.10;99.90;;;;;;1043161;28;20027;-80
2022/10/11 02:11:45;;;;;;;2.90;1.70;;;12.20;99.90;;;;;;1039504;28;20010;-80
2022/10/11 02:12:31;;;;;;;4.00;1.77;;;12.10;99.90;;;;;;1042721;28;20005;-79
2022/10/11 02:13:27;;;;;;;2.25;1.50;;;12.10;99.90;;;;;;1038528;28;20100;-79
2022/10/11 02:14:14;;;;;;;3.95;1.80;;;12.10;99.90;;;;;;1038250;28;20014;-79
2022/10/11 02:14:48;;;;;;;2.38;1.73;;;12.20;99.90;;;;;;1046711;28;20021;-80
2022/10/11 02:15:20;;;;;;;3.80;1.88;;;12.10;99.90;;;;;;1050830;28;20020;-80
2022/10/11 02:15:52;;;;;;;2.13;1.50;;;12.10;99.90;;;;;;1040051;28;20048;-78
2022/10/11 02:16:30;;;;;;;2.88;1.95;;;12.10;99.90;;;;;;1041156;28;20083;-79
2022/10/11 02:17:07;;;;;;;4.13;2.08;;;12.10;99.90;;;;;;1043038;28;20028;-82
2022/10/11 02:17:55;;;;;;;2.60;1.70;;;12.10;99.90;;;;;;1048584;28;20092;-80
2022/10/11 02:18:32;;;;;;;2.78;1.80;;;12.10;99.90;;;;;;1047272;28;20025;-79
2022/10/11 02:19:05;;;;;;;2.83;1.88;;;12.10;99.90;;;;;;1047154;28;20017;-82
2022/10/11 02:19:44;;;;;;;3.00;1.92;;;12.00;99.90;;;;;;1039397;28;20025;-79
2022/10/11 02:20:20;;;;;;;3.22;2.17;;;12.10;99.90;;;;;;1039210;28;20021;-82
2022/10/11 02:20:52;;;;;;;4.35;2.10;;;12.00;99.90;;;;;;1037335;28;20456;-80
2022/10/11 02:21:23;;;;;;;3.17;2.00;;;12.00;99.90;;;;;;1035639;28;20025;-82
2022/10/11 02:21:59;;;;;;;2.50;2.05;;;12.00;99.90;;;;;;1040299;28;20645;-80
2022/10/11 02:22:36;;;;;;;2.22;1.70;;;12.00;99.90;;;;;;1044406;28;20041;-78
2022/10/11 02:23:17;;;;;;;4.15;2.08;;;11.90;99.90;;;;;;1046487;28;20363;-78
2022/10/11 02:24:01;;;;;;;3.80;1.60;;;11.90;99.90;;;;;;1043424;28;20021;-79
2022/10/11 02:24:38;;;;;;;2.70;1.70;;;11.90;99.90;;;;;;1043044;28;20561;-80
2022/10/11 02:25:14;;;;;;;3.88;2.10;;;11.90;99.90;;;;;;1039089;28;20029;-79
2022/10/11 02:25:46;;;;;;;2.58;1.60;;;11.80;99.90;;;;;;1039181;28;20049;-80
2022/10/11 02:26:20;;;;;;;2.83;1.73;;;11.80;99.90;;;;;;1040783;28;20096;-80
2022/10/11 02:26:53;;;;;;;4.03;2.10;;;11.80;99.90;;;;;;1052441;28;20406;-79
2022/10/11 02:27:28;;;;;;;3.80;2.35;;;11.80;99.90;;;;;;1055337;28;20012;-80
2022/10/11 02:28:03;;;;;;;5.05;2.25;;;11.80;99.90;;;;;;1051404;28;20456;-80
2022/10/11 02:28:38;;;;;;;3.63;1.90;;;11.80;99.90;;;;;;1046052;28;20023;-78
2022/10/11 02:29:10;;;;;;;3.15;1.60;;;11.80;99.90;;;;;;1046844;28;20020;-78
2022/10/11 02:29:43;;;;;;;4.40;2.10;;;11.80;99.90;;;;;;1043326;28;20009;-79
2022/10/11 02:30:15;;;;;;;4.80;1.95;;;11.70;99.90;;;;;;1043023;28;20056;-79
2022/10/11 02:30:49;;;;;;;2.92;1.90;;;11.70;99.90;;;;;;1045018;28;20013;-79
2022/10/11 02:31:20;;;;;;;2.90;1.75;;;11.70;99.90;;;;;;1039877;28;20085;-78
2022/10/11 02:31:53;;;;;;;3.70;2.10;;;11.70;99.90;;;;;;1038906;28;20387;-78
2022/10/11 02:32:24;;;;;;;3.65;1.98;;;11.70;99.90;;;;;;1034968;28;20116;-80
2022/10/11 02:32:57;;;;;;;2.80;1.83;;;11.70;99.90;;;;;;1036488;28;20022;-80
2022/10/11 02:33:41;;;;;;;3.25;1.70;;;11.70;99.90;;;;;;1039724;28;20112;-80
2022/10/11 02:34:30;;;;;;;3.22;2.00;;;11.70;99.90;;;;;;1043001;28;20029;-79
2022/10/11 02:35:01;;;;;;;3.97;2.15;;;11.70;99.90;;;;;;1042346;28;20021;-79
2022/10/11 02:35:37;;;;;;;2.28;1.77;;;11.80;99.90;;;;;;1047328;28;20040;-79
2022/10/11 02:36:23;;;;;;;2.78;2.03;;;11.70;99.90;;;;;;1051333;28;20042;-80
2022/10/11 02:37:14;;;;;;;2.78;1.88;;;11.80;99.90;;;;;;1049816;28;20108;-80
2022/10/11 02:38:00;;;;;;;4.00;2.25;;;11.80;99.90;;;;;;1047293;28;20177;-80
2022/10/11 02:38:39;;;;;;;3.75;1.63;;;11.80;99.90;;;;;;1047069;28;20016;-78
2022/10/11 02:39:41;;;;;;;2.30;1.67;;;11.80;99.90;;;;;;1048510;28;20044;-79
2022/10/11 02:40:38;;;;;;;3.58;1.80;;;11.80;99.90;;;;;;1034599;28;20771;-79
2022/10/11 02:41:28;;;;;;;3.72;1.77;;;11.80;99.90;;;;;;1042265;28;20451;-79
2022/10/11 02:42:03;;;;;;;3.72;1.92;;;11.80;99.90;;;;;;1045015;28;20025;-79
2022/10/11 02:42:44;;;;;;;3.47;2.25;;;11.80;99.90;;;;;;1047548;28;20032;-79
2022/10/11 02:43:40;;;;;;;4.07;1.60;;;11.80;99.90;;;;;;1047269;28;20029;-79
2022/10/11 02:44:22;;;;;;;2.42;1.60;;;11.80;99.90;;;;;;1043058;28;20067;-81
2022/10/11 02:44:59;;;;;;;2.47;1.60;;;11.70;99.90;;;;;;1039661;28;20025;-80
2022/10/11 02:46:04;;;;;;;3.42;2.05;;;11.80;99.90;;;;;;1043060;28;20087;-81
2022/10/11 02:46:36;;;;;;;3.42;1.80;;;11.70;99.90;;;;;;1032214;28;20077;-78
2022/10/11 02:47:07;;;;;;;1.77;1.23;;;11.70;99.90;;;;;;1034260;28;20103;-79
2022/10/11 02:47:39;;;;;;;2.58;1.70;;;11.70;99.90;;;;;;1034988;28;20053;-80
2022/10/11 02:48:11;;;;;;;2.92;1.83;;;11.70;99.90;;;;;;1035681;28;20021;-80
2022/10/11 02:48:42;;;;;;;3.38;2.20;;;11.70;99.90;;;;;;1040462;28;20032;-79
2022/10/11 02:49:14;;;;;;;3.00;1.70;;;11.70;99.90;;;;;;1043288;28;20028;-79
2022/10/11 02:49:44;;;;;;;2.75;1.75;;;11.70;99.90;;;;;;1046889;28;20017;-79
2022/10/11 02:50:15;;;;;;;3.73;1.87;;;11.70;99.90;;;;;;1043366;28;20108;-78
2022/10/11 02:50:46;;;;;;;2.73;1.70;;;11.70;99.90;;;;;;1047130;28;20024;-80
2022/10/11 02:51:17;;;;;;;2.15;1.73;;;11.70;99.90;;;;;;1047049;28;20408;-80
2022/10/11 02:51:47;;;;;;;3.03;2.00;;;11.70;99.90;;;;;;1047181;28;20013;-79
2022/10/11 02:52:19;;;;;;;4.87;2.30;;;11.70;99.90;;;;;;1042443;28;20028;-79
2022/10/11 02:52:49;;;;;;;5.60;1.90;;;11.80;99.90;;;;;;1034984;28;20018;-80
2022/10/11 02:53:21;;;;;;;2.83;1.73;;;11.70;99.90;;;;;;1036693;28;20100;-80
2022/10/11 02:53:52;;;;;;;3.30;1.88;;;11.80;99.90;;;;;;1043330;28;20511;-79
2022/10/11 02:54:25;;;;;;;3.53;2.00;;;11.80;99.90;;;;;;1047518;28;20460;-79
2022/10/11 02:54:56;;;;;;;3.47;1.67;;;11.80;99.90;;;;;;1046989;28;20120;-80
2022/10/11 02:55:26;;;;;;;2.93;2.27;;;11.80;99.90;;;;;;1042945;28;20021;-78
2022/10/11 02:55:57;;;;;;;2.20;1.60;;;11.80;99.90;;;;;;1039111;28;20187;-79
2022/10/11 02:56:28;;;;;;;2.13;1.57;;;11.80;99.90;;;;;;1038820;28;20448;-80
2022/10/11 02:56:58;;;;;;;2.23;1.63;;;11.90;99.90;;;;;;1043072;28;20031;-79
2022/10/11 02:57:29;;;;;;;4.67;1.83;;;11.90;99.90;;;;;;1043824;28;20025;-80
2022/10/11 02:58:00;;;;;;;2.27;1.90;;;11.80;99.90;;;;;;1043047;28;20182;-79
2022/10/11 02:58:30;;;;;;;3.13;1.83;;;11.80;99.90;;;;;;1042776;28;20087;-79
2022/10/11 02:59:01;;;;;;;2.00;1.80;;;11.90;99.90;;;;;;1042871;28;20025;-79
2022/10/11 02:59:31;;;;;;;2.90;1.90;;;11.90;99.90;;;;;;1043343;28;20182;-79
2022/10/11 03:00:03;;;;;;;3.57;2.07;;;11.90;99.90;;;;;;1047161;28;20800;-79
2022/10/11 03:00:33;;;;;;;2.30;1.80;;;11.90;99.90;;;;;;1047432;28;20024;-79
2022/10/11 03:01:05;;;;;;;3.23;1.90;;;11.90;99.90;;;;;;1047310;28;20036;-80
2022/10/11 03:01:35;;;;;;;3.22;1.75;;;11.80;99.90;;;;;;1047160;28;20060;-81
2022/10/11 03:02:06;;;;;;;2.33;1.80;;;11.90;99.90;;;;;;1047188;28;20028;-78
2022/10/11 03:02:37;;;;;;;3.53;1.83;;;11.80;99.90;;;;;;1043152;28;20028;-79
2022/10/11 03:03:07;;;;;;;2.97;1.80;;;11.90;99.90;;;;;;1047047;28;20107;-78
2022/10/11 03:03:38;;;;;;;2.13;1.80;;;11.80;99.90;;;;;;1042993;28;20058;-81
2022/10/11 03:04:09;;;;;;;4.07;1.60;;;11.90;99.90;;;;;;1045202;28;20024;-79
2022/10/11 03:04:39;;;;;;;2.63;2.00;;;11.80;99.90;;;;;;1047224;28;20024;-80
2022/10/11 03:05:10;;;;;;;2.27;1.50;;;11.80;99.90;;;;;;1043222;28;20333;-78
2022/10/11 03:05:42;;;;;;;2.37;1.60;;;11.80;99.90;;;;;;1050004;28;20036;-78
2022/10/11 03:06:12;;;;;;;4.22;2.20;;;11.80;99.90;;;;;;1039038;28;20431;-78
2022/10/11 03:06:43;;;;;;;3.87;1.73;;;11.80;99.90;;;;;;1034907;28;20681;-79
2022/10/11 03:07:14;;;;;;;3.10;2.10;;;11.80;99.90;;;;;;1034702;28;20014;-79
2022/10/11 03:07:44;;;;;;;2.87;2.00;;;11.70;99.90;;;;;;1038467;28;20021;-78
2022/10/11 03:08:15;;;;;;;3.67;2.17;;;11.70;99.90;;;;;;1042967;28;20464;-77
2022/10/11 03:08:46;;;;;;;3.00;1.80;;;11.70;99.90;;;;;;1042954;28;20013;-78
2022/10/11 03:09:17;;;;;;;4.30;1.77;;;11.70;99.90;;;;;;1045060;28;20013;-78
2022/10/11 03:09:47;;;;;;;3.40;2.30;;;11.70;99.90;;;;;;1047002;28;20048;-80
2022/10/11 03:10:18;;;;;;;2.43;1.63;;;11.70;99.90;;;;;;1043070;28;20045;-78
2022/10/11 03:10:49;;;;;;;4.57;1.60;;;11.70;99.90;;;;;;1038692;28;20124;-77
2022/10/11 03:11:19;;;;;;;4.00;2.07;;;11.70;99.90;;;;;;1038803;28;20040;-78
2022/10/11 03:11:50;;;;;;;2.07;1.80;;;11.70;99.90;;;;;;1038544;28;20276;-79